sensor_id;sensor_type;location;lat;lon;timestamp;pressure;altitude;pressure_sealevel;temperature;humidity
30343;BME280;17145;49.902;8.680;'2023-04-28 01:58:26';99870;;;13;38
30343;BME280;17145;49.902;8.680;'2023-04-28 02:00:53';99870;;;13;39
30343;BME280;17145;49.902;8.680;'2023-04-28 02:03:20';99880;;;13;39
30343;BME280;17145;49.902;8.680;'2023-04-28 02:05:48';99880;;;13;39
30343;BME280;17145;49.902;8.680;'2023-04-28 02:08:15';99880;;;13;39
30343;BME280;17145;49.902;8.680;'2023-04-28 02:10:43';99870;;;13;39
30343;BME280;17145;49.902;8.680;'2023-04-28 02:13:10';99870;;;13;39
30343;BME280;17145;49.902;8.680;'2023-04-28 02:15:38';99860;;;13;39
30343;BME280;17145;49.902;8.680;'2023-04-28 02:18:05';99860;;;13;39
30343;BME280;17145;49.902;8.680;'2023-04-28 02:20:32';99860;;;13;39
30343;BME280;17145;49.902;8.680;'2023-04-28 02:23:00';99850;;;13;39
30343;BME280;17145;49.902;8.680;'2023-04-28 02:25:27';99850;;;13;39
30343;BME280;17145;49.902;8.680;'2023-04-28 02:27:55';99850;;;13;39
30343;BME280;17145;49.902;8.680;'2023-04-28 02:30:22';99840;;;12;39
30343;BME280;17145;49.902;8.680;'2023-04-28 02:32:49';99840;;;13;40
30343;BME280;17145;49.902;8.680;'2023-04-28 02:35:17';99830;;;13;39
30343;BME280;17145;49.902;8.680;'2023-04-28 02:37:44';99840;;;13;40
30343;BME280;17145;49.902;8.680;'2023-04-28 02:40:12';99830;;;13;39
30343;BME280;17145;49.902;8.680;'2023-04-28 02:42:40';99830;;;13;40
30343;BME280;17145;49.902;8.680;'2023-04-28 02:45:08';99830;;;13;39
30343;BME280;17145;49.902;8.680;'2023-04-28 02:47:36';99820;;;13;40
30343;BME280;17145;49.902;8.680;'2023-04-28 02:50:04';99820;;;13;40
30343;BME280;17145;49.902;8.680;'2023-04-28 02:52:32';99820;;;12;40
30343;BME280;17145;49.902;8.680;'2023-04-28 02:54:59';99820;;;13;40
30343;BME280;17145;49.902;8.680;'2023-04-28 02:57:27';99820;;;12;40
30343;BME280;17145;49.902;8.680;'2023-04-28 02:59:54';99810;;;13;40
30343;BME280;17145;49.902;8.680;'2023-04-28 03:02:22';99810;;;13;40
30343;BME280;17145;49.902;8.680;'2023-04-28 03:04:50';99800;;;12;40
30343;BME280;17145;49.902;8.680;'2023-04-28 03:07:17';99800;;;13;40
30343;BME280;17145;49.902;8.680;'2023-04-28 03:09:45';99790;;;13;40
30343;BME280;17145;49.902;8.680;'2023-04-28 03:12:12';99790;;;13;40
30343;BME280;17145;49.902;8.680;'2023-04-28 03:14:40';99790;;;12;40
30343;BME280;17145;49.902;8.680;'2023-04-28 03:17:09';99790;;;13;40
30343;BME280;17145;49.902;8.680;'2023-04-28 03:19:36';99780;;;13;41
30343;BME280;17145;49.902;8.680;'2023-04-28 03:22:04';99770;;;13;41
30343;BME280;17145;49.902;8.680;'2023-04-28 03:24:31';99770;;;13;41
30343;BME280;17145;49.902;8.680;'2023-04-28 03:26:58';99770;;;13;41
30343;BME280;17145;49.902;8.680;'2023-04-28 03:29:26';99770;;;13;42
30343;BME280;17145;49.902;8.680;'2023-04-28 03:31:53';99770;;;13;42
30343;BME280;17145;49.902;8.680;'2023-04-28 03:34:20';99770;;;13;42
30343;BME280;17145;49.902;8.680;'2023-04-28 03:36:48';99770;;;12;42
30343;BME280;17145;49.902;8.680;'2023-04-28 03:39:15';99770;;;12;43
30343;BME280;17145;49.902;8.680;'2023-04-28 03:41:43';99770;;;12;42
30343;BME280;17145;49.902;8.680;'2023-04-28 03:44:10';99770;;;12;43
30343;BME280;17145;49.902;8.680;'2023-04-28 03:46:37';99760;;;13;43
30343;BME280;17145;49.902;8.680;'2023-04-28 03:49:05';99760;;;12;44
30343;BME280;17145;49.902;8.680;'2023-04-28 03:51:33';99760;;;13;44
30343;BME280;17145;49.902;8.680;'2023-04-28 03:54:05';99750;;;12;44
30343;BME280;17145;49.902;8.680;'2023-04-28 03:56:33';99750;;;12;44
30343;BME280;17145;49.902;8.680;'2023-04-28 03:59:00';99750;;;12;45
30343;BME280;17145;49.902;8.680;'2023-04-28 04:01:28';99750;;;12;45
30343;BME280;17145;49.902;8.680;'2023-04-28 04:03:55';99760;;;12;45
30343;BME280;17145;49.902;8.680;'2023-04-28 04:06:22';99750;;;12;46
30343;BME280;17145;49.902;8.680;'2023-04-28 04:08:50';99760;;;12;46
30343;BME280;17145;49.902;8.680;'2023-04-28 04:11:17';99760;;;12;46
30343;BME280;17145;49.902;8.680;'2023-04-28 04:13:44';99760;;;12;46
30343;BME280;17145;49.902;8.680;'2023-04-28 04:16:12';99760;;;12;47
30343;BME280;17145;49.902;8.680;'2023-04-28 04:18:39';99770;;;12;47
30343;BME280;17145;49.902;8.680;'2023-04-28 04:21:08';99770;;;12;47
30343;BME280;17145;49.902;8.680;'2023-04-28 04:23:36';99770;;;12;47
30343;BME280;17145;49.902;8.680;'2023-04-28 04:26:03';99770;;;12;47
30343;BME280;17145;49.902;8.680;'2023-04-28 04:28:31';99760;;;12;47
30343;BME280;17145;49.902;8.680;'2023-04-28 04:31:05';99760;;;12;47
30343;BME280;17145;49.902;8.680;'2023-04-28 04:33:32';99760;;;12;47
30343;BME280;17145;49.902;8.680;'2023-04-28 04:36:00';99760;;;12;48
30343;BME280;17145;49.902;8.680;'2023-04-28 04:38:28';99760;;;12;48
30343;BME280;17145;49.902;8.680;'2023-04-28 04:40:57';99760;;;12;48
30343;BME280;17145;49.902;8.680;'2023-04-28 04:43:25';99760;;;12;48
30343;BME280;17145;49.902;8.680;'2023-04-28 04:45:53';99750;;;12;49
30343;BME280;17145;49.902;8.680;'2023-04-28 04:48:20';99750;;;12;48
30343;BME280;17145;49.902;8.680;'2023-04-28 04:50:48';99740;;;12;49
30343;BME280;17145;49.902;8.680;'2023-04-28 04:53:15';99740;;;12;49
30343;BME280;17145;49.902;8.680;'2023-04-28 04:55:43';99730;;;12;49
30343;BME280;17145;49.902;8.680;'2023-04-28 04:58:10';99730;;;12;49
30343;BME280;17145;49.902;8.680;'2023-04-28 05:00:38';99730;;;12;49
30343;BME280;17145;49.902;8.680;'2023-04-28 05:03:05';99730;;;12;49
30343;BME280;17145;49.902;8.680;'2023-04-28 05:05:33';99730;;;12;49
30343;BME280;17145;49.902;8.680;'2023-04-28 05:08:00';99730;;;12;49
30343;BME280;17145;49.902;8.680;'2023-04-28 05:10:28';99730;;;12;50
30343;BME280;17145;49.902;8.680;'2023-04-28 05:12:55';99720;;;12;49
30343;BME280;17145;49.902;8.680;'2023-04-28 05:15:22';99730;;;12;49
30343;BME280;17145;49.902;8.680;'2023-04-28 05:17:50';99730;;;12;49
30343;BME280;17145;49.902;8.680;'2023-04-28 05:20:17';99730;;;12;49
30343;BME280;17145;49.902;8.680;'2023-04-28 05:22:45';99720;;;12;50
30343;BME280;17145;49.902;8.680;'2023-04-28 05:25:12';99720;;;12;49
30343;BME280;17145;49.902;8.680;'2023-04-28 05:27:40';99720;;;12;50
30343;BME280;17145;49.902;8.680;'2023-04-28 05:30:08';99720;;;12;50
30343;BME280;17145;49.902;8.680;'2023-04-28 05:32:35';99720;;;12;50
30343;BME280;17145;49.902;8.680;'2023-04-28 05:35:03';99720;;;12;50
30343;BME280;17145;49.902;8.680;'2023-04-28 05:37:31';99710;;;12;51
30343;BME280;17145;49.902;8.680;'2023-04-28 05:39:58';99710;;;12;51
30343;BME280;17145;49.902;8.680;'2023-04-28 05:42:25';99700;;;12;51
30343;BME280;17145;49.902;8.680;'2023-04-28 05:44:53';99700;;;12;51
30343;BME280;17145;49.902;8.680;'2023-04-28 05:47:20';99700;;;12;51
30343;BME280;17145;49.902;8.680;'2023-04-28 05:49:47';99700;;;12;51
30343;BME280;17145;49.902;8.680;'2023-04-28 05:52:15';99700;;;12;51
30343;BME280;17145;49.902;8.680;'2023-04-28 05:54:42';99700;;;12;52
30343;BME280;17145;49.902;8.680;'2023-04-28 05:57:09';99710;;;12;52
30343;BME280;17145;49.902;8.680;'2023-04-28 05:59:37';99700;;;12;51
30343;BME280;17145;49.902;8.680;'2023-04-28 06:02:04';99700;;;11;52
30343;BME280;17145;49.902;8.680;'2023-04-28 06:04:32';99690;;;11;52
30343;BME280;17145;49.902;8.680;'2023-04-28 06:06:59';99680;;;12;52
30343;BME280;17145;49.902;8.680;'2023-04-28 06:09:27';99680;;;12;53
30343;BME280;17145;49.902;8.680;'2023-04-28 06:11:54';99670;;;11;52
30343;BME280;17145;49.902;8.680;'2023-04-28 06:14:22';99670;;;12;53
30343;BME280;17145;49.902;8.680;'2023-04-28 06:16:49';99660;;;11;53
30343;BME280;17145;49.902;8.680;'2023-04-28 06:19:16';99660;;;12;53
30343;BME280;17145;49.902;8.680;'2023-04-28 06:21:44';99660;;;12;53
30343;BME280;17145;49.902;8.680;'2023-04-28 06:24:11';99660;;;11;53
30343;BME280;17145;49.902;8.680;'2023-04-28 06:26:39';99650;;;11;53
30343;BME280;17145;49.902;8.680;'2023-04-28 06:29:06';99650;;;12;53
30343;BME280;17145;49.902;8.680;'2023-04-28 06:31:33';99650;;;12;53
30343;BME280;17145;49.902;8.680;'2023-04-28 06:34:01';99660;;;11;53
30343;BME280;17145;49.902;8.680;'2023-04-28 06:36:30';99660;;;12;53
30343;BME280;17145;49.902;8.680;'2023-04-28 06:38:57';99650;;;11;53
30343;BME280;17145;49.902;8.680;'2023-04-28 06:41:25';99650;;;11;54
30343;BME280;17145;49.902;8.680;'2023-04-28 06:43:53';99650;;;11;54
30343;BME280;17145;49.902;8.680;'2023-04-28 06:46:20';99650;;;12;54
30343;BME280;17145;49.902;8.680;'2023-04-28 06:48:48';99650;;;11;54
30343;BME280;17145;49.902;8.680;'2023-04-28 06:51:15';99640;;;11;54
30343;BME280;17145;49.902;8.680;'2023-04-28 06:53:43';99640;;;12;54
30343;BME280;17145;49.902;8.680;'2023-04-28 06:56:10';99640;;;11;54
30343;BME280;17145;49.902;8.680;'2023-04-28 06:58:38';99640;;;12;54
30343;BME280;17145;49.902;8.680;'2023-04-28 07:01:05';99630;;;12;54
30343;BME280;17145;49.902;8.680;'2023-04-28 07:03:32';99640;;;12;54
30343;BME280;17145;49.902;8.680;'2023-04-28 07:06:00';99640;;;12;54
30343;BME280;17145;49.902;8.680;'2023-04-28 07:08:27';99630;;;12;54
30343;BME280;17145;49.902;8.680;'2023-04-28 07:10:55';99640;;;12;54
30343;BME280;17145;49.902;8.680;'2023-04-28 07:13:22';99650;;;12;54
30343;BME280;17145;49.902;8.680;'2023-04-28 07:15:50';99660;;;12;55
30343;BME280;17145;49.902;8.680;'2023-04-28 07:18:17';99670;;;12;54
30343;BME280;17145;49.902;8.680;'2023-04-28 07:20:45';99670;;;12;55
30343;BME280;17145;49.902;8.680;'2023-04-28 07:23:12';99670;;;12;55
30343;BME280;17145;49.902;8.680;'2023-04-28 07:25:39';99670;;;12;54
30343;BME280;17145;49.902;8.680;'2023-04-28 07:28:09';99680;;;12;54
30343;BME280;17145;49.902;8.680;'2023-04-28 07:30:36';99680;;;12;55
30343;BME280;17145;49.902;8.680;'2023-04-28 07:33:04';99680;;;12;54
30343;BME280;17145;49.902;8.680;'2023-04-28 07:35:31';99680;;;12;55
30343;BME280;17145;49.902;8.680;'2023-04-28 07:37:59';99680;;;12;55
30343;BME280;17145;49.902;8.680;'2023-04-28 07:40:26';99680;;;12;55
30343;BME280;17145;49.902;8.680;'2023-04-28 07:42:54';99680;;;12;56
30343;BME280;17145;49.902;8.680;'2023-04-28 07:45:21';99690;;;12;55
30343;BME280;17145;49.902;8.680;'2023-04-28 07:47:49';99690;;;12;56
30343;BME280;17145;49.902;8.680;'2023-04-28 07:50:16';99700;;;12;56
30343;BME280;17145;49.902;8.680;'2023-04-28 07:52:44';99690;;;12;55
30343;BME280;17145;49.902;8.680;'2023-04-28 07:55:11';99700;;;12;56
30343;BME280;17145;49.902;8.680;'2023-04-28 07:57:39';99700;;;12;56
30343;BME280;17145;49.902;8.680;'2023-04-28 08:00:07';99700;;;12;56
30343;BME280;17145;49.902;8.680;'2023-04-28 08:02:34';99700;;;12;56
30343;BME280;17145;49.902;8.680;'2023-04-28 08:05:02';99710;;;12;56
30343;BME280;17145;49.902;8.680;'2023-04-28 08:07:29';99710;;;12;55
30343;BME280;17145;49.902;8.680;'2023-04-28 08:09:56';99710;;;12;55
30343;BME280;17145;49.902;8.680;'2023-04-28 08:12:24';99710;;;12;55
30343;BME280;17145;49.902;8.680;'2023-04-28 08:14:51';99700;;;12;55
30343;BME280;17145;49.902;8.680;'2023-04-28 08:17:19';99680;;;12;56
30343;BME280;17145;49.902;8.680;'2023-04-28 08:19:46';99670;;;12;55
30343;BME280;17145;49.902;8.680;'2023-04-28 08:22:13';99680;;;12;54
30343;BME280;17145;49.902;8.680;'2023-04-28 08:24:41';99680;;;12;54
30343;BME280;17145;49.902;8.680;'2023-04-28 08:27:08';99690;;;12;54
30343;BME280;17145;49.902;8.680;'2023-04-28 08:29:35';99700;;;12;54
30343;BME280;17145;49.902;8.680;'2023-04-28 08:32:03';99700;;;12;54
30343;BME280;17145;49.902;8.680;'2023-04-28 08:34:30';99700;;;12;54
30343;BME280;17145;49.902;8.680;'2023-04-28 08:36:58';99700;;;12;55
30343;BME280;17145;49.902;8.680;'2023-04-28 08:39:26';99690;;;12;54
30343;BME280;17145;49.902;8.680;'2023-04-28 08:41:53';99700;;;12;54
30343;BME280;17145;49.902;8.680;'2023-04-28 08:44:20';99700;;;12;55
30343;BME280;17145;49.902;8.680;'2023-04-28 08:46:48';99700;;;12;54
30343;BME280;17145;49.902;8.680;'2023-04-28 08:49:15';99700;;;12;54
30343;BME280;17145;49.902;8.680;'2023-04-28 08:51:44';99700;;;12;54
30343;BME280;17145;49.902;8.680;'2023-04-28 08:54:11';99700;;;12;55
30343;BME280;17145;49.902;8.680;'2023-04-28 08:56:38';99700;;;12;55
30343;BME280;17145;49.902;8.680;'2023-04-28 08:59:05';99700;;;12;55
30343;BME280;17145;49.902;8.680;'2023-04-28 09:01:33';99690;;;12;55
30343;BME280;17145;49.902;8.680;'2023-04-28 09:04:00';99680;;;12;55
30343;BME280;17145;49.902;8.680;'2023-04-28 09:06:28';99680;;;12;55
30343;BME280;17145;49.902;8.680;'2023-04-28 09:08:55';99690;;;12;55
30343;BME280;17145;49.902;8.680;'2023-04-28 09:11:23';99690;;;12;55
30343;BME280;17145;49.902;8.680;'2023-04-28 09:13:50';99690;;;12;55
30343;BME280;17145;49.902;8.680;'2023-04-28 09:16:18';99690;;;12;56
30343;BME280;17145;49.902;8.680;'2023-04-28 09:18:45';99680;;;12;56
30343;BME280;17145;49.902;8.680;'2023-04-28 09:21:12';99690;;;12;56
30343;BME280;17145;49.902;8.680;'2023-04-28 09:23:40';99680;;;12;56
30343;BME280;17145;49.902;8.680;'2023-04-28 09:26:07';99670;;;12;56
30343;BME280;17145;49.902;8.680;'2023-04-28 09:28:34';99670;;;12;56
30343;BME280;17145;49.902;8.680;'2023-04-28 09:31:02';99670;;;12;56
30343;BME280;17145;49.902;8.680;'2023-04-28 09:33:29';99660;;;12;56
30343;BME280;17145;49.902;8.680;'2023-04-28 09:35:57';99660;;;12;57
30343;BME280;17145;49.902;8.680;'2023-04-28 09:38:24';99660;;;12;56
30343;BME280;17145;49.902;8.680;'2023-04-28 09:40:52';99660;;;12;56
30343;BME280;17145;49.902;8.680;'2023-04-28 09:43:19';99650;;;12;56
30343;BME280;17145;49.902;8.680;'2023-04-28 09:45:47';99660;;;12;56
30343;BME280;17145;49.902;8.680;'2023-04-28 09:48:14';99650;;;12;56
30343;BME280;17145;49.902;8.680;'2023-04-28 09:50:41';99650;;;12;56
30343;BME280;17145;49.902;8.680;'2023-04-28 09:53:09';99660;;;12;56
30343;BME280;17145;49.902;8.680;'2023-04-28 09:55:36';99660;;;13;56
30343;BME280;17145;49.902;8.680;'2023-04-28 09:58:04';99650;;;12;56
30343;BME280;17145;49.902;8.680;'2023-04-28 10:00:32';99650;;;12;56
30343;BME280;17145;49.902;8.680;'2023-04-28 10:02:59';99650;;;12;56
30343;BME280;17145;49.902;8.680;'2023-04-28 10:05:26';99650;;;13;56
30343;BME280;17145;49.902;8.680;'2023-04-28 10:07:54';99650;;;12;56
30343;BME280;17145;49.902;8.680;'2023-04-28 10:10:21';99660;;;12;56
30343;BME280;17145;49.902;8.680;'2023-04-28 10:12:49';99670;;;13;56
30343;BME280;17145;49.902;8.680;'2023-04-28 10:15:16';99660;;;12;56
30343;BME280;17145;49.902;8.680;'2023-04-28 10:17:44';99660;;;13;56
30343;BME280;17145;49.902;8.680;'2023-04-28 10:20:11';99660;;;12;56
30343;BME280;17145;49.902;8.680;'2023-04-28 10:22:39';99660;;;12;56
30343;BME280;17145;49.902;8.680;'2023-04-28 10:25:07';99660;;;12;56
30343;BME280;17145;49.902;8.680;'2023-04-28 10:27:36';99670;;;13;56
30343;BME280;17145;49.902;8.680;'2023-04-28 10:30:04';99670;;;13;55
30343;BME280;17145;49.902;8.680;'2023-04-28 10:32:31';99670;;;12;56
30343;BME280;17145;49.902;8.680;'2023-04-28 10:34:59';99680;;;12;56
30343;BME280;17145;49.902;8.680;'2023-04-28 10:37:27';99680;;;12;56
30343;BME280;17145;49.902;8.680;'2023-04-28 10:39:54';99680;;;13;56
30343;BME280;17145;49.902;8.680;'2023-04-28 10:42:22';99680;;;13;56
30343;BME280;17145;49.902;8.680;'2023-04-28 10:44:52';99680;;;13;56
30343;BME280;17145;49.902;8.680;'2023-04-28 10:47:21';99680;;;13;57
30343;BME280;17145;49.902;8.680;'2023-04-28 10:49:50';99690;;;13;56
30343;BME280;17145;49.902;8.680;'2023-04-28 10:52:19';99690;;;13;56
30343;BME280;17145;49.902;8.680;'2023-04-28 10:54:49';99680;;;13;56
30343;BME280;17145;49.902;8.680;'2023-04-28 10:57:19';99680;;;13;56
30343;BME280;17145;49.902;8.680;'2023-04-28 10:59:47';99680;;;13;56
30343;BME280;17145;49.902;8.680;'2023-04-28 11:02:15';99680;;;13;56
30343;BME280;17145;49.902;8.680;'2023-04-28 11:04:42';99680;;;13;57
30343;BME280;17145;49.902;8.680;'2023-04-28 11:07:10';99680;;;13;58
30343;BME280;17145;49.902;8.680;'2023-04-28 11:09:39';99680;;;13;58
30343;BME280;17145;49.902;8.680;'2023-04-28 11:12:06';99680;;;13;58
30343;BME280;17145;49.902;8.680;'2023-04-28 11:14:35';99690;;;13;59
30343;BME280;17145;49.902;8.680;'2023-04-28 11:17:09';99690;;;13;59
30343;BME280;17145;49.902;8.680;'2023-04-28 11:19:37';99690;;;13;59
30343;BME280;17145;49.902;8.680;'2023-04-28 11:22:05';99680;;;13;60
30343;BME280;17145;49.902;8.680;'2023-04-28 11:24:34';99680;;;13;60
30343;BME280;17145;49.902;8.680;'2023-04-28 11:27:04';99680;;;13;59
30343;BME280;17145;49.902;8.680;'2023-04-28 11:29:32';99690;;;13;58
30343;BME280;17145;49.902;8.680;'2023-04-28 11:32:12';99690;;;13;58
30343;BME280;17145;49.902;8.680;'2023-04-28 11:34:42';99690;;;13;59
30343;BME280;17145;49.902;8.680;'2023-04-28 11:37:14';99690;;;13;58
30343;BME280;17145;49.902;8.680;'2023-04-28 11:42:21';99700;;;13;58
30343;BME280;17145;49.902;8.680;'2023-04-28 11:44:52';99700;;;13;58
30343;BME280;17145;49.902;8.680;'2023-04-28 11:47:20';99690;;;13;58
30343;BME280;17145;49.902;8.680;'2023-04-28 11:49:53';99690;;;12;58
30343;BME280;17145;49.902;8.680;'2023-04-28 11:52:21';99690;;;12;58
30343;BME280;17145;49.902;8.680;'2023-04-28 11:54:50';99700;;;13;58
30343;BME280;17145;49.902;8.680;'2023-04-28 11:57:18';99700;;;13;58
30343;BME280;17145;49.902;8.680;'2023-04-28 11:59:48';99700;;;13;58
30343;BME280;17145;49.902;8.680;'2023-04-28 12:02:17';99690;;;13;58
30343;BME280;17145;49.902;8.680;'2023-04-28 12:04:47';99700;;;13;58
30343;BME280;17145;49.902;8.680;'2023-04-28 12:07:17';99700;;;13;58
30343;BME280;17145;49.902;8.680;'2023-04-28 12:09:44';99700;;;13;59
30343;BME280;17145;49.902;8.680;'2023-04-28 12:12:13';99700;;;13;58
30343;BME280;17145;49.902;8.680;'2023-04-28 12:14:41';99690;;;13;58
30343;BME280;17145;49.902;8.680;'2023-04-28 12:17:10';99690;;;13;58
30343;BME280;17145;49.902;8.680;'2023-04-28 12:19:38';99690;;;13;59
30343;BME280;17145;49.902;8.680;'2023-04-28 12:25:03';99680;;;13;58
30343;BME280;17145;49.902;8.680;'2023-04-28 12:27:33';99680;;;14;57
30343;BME280;17145;49.902;8.680;'2023-04-28 12:30:10';99680;;;13;58
30343;BME280;17145;49.902;8.680;'2023-04-28 12:35:21';99680;;;14;57
30343;BME280;17145;49.902;8.680;'2023-04-28 12:38:02';99680;;;14;57
30343;BME280;17145;49.902;8.680;'2023-04-28 12:40:32';99680;;;14;57
30343;BME280;17145;49.902;8.680;'2023-04-28 12:45:47';99670;;;14;57
30343;BME280;17145;49.902;8.680;'2023-04-28 12:50:52';99670;;;14;57
30343;BME280;17145;49.902;8.680;'2023-04-28 12:55:56';99660;;;14;58
30343;BME280;17145;49.902;8.680;'2023-04-28 13:01:14';99660;;;14;58
30343;BME280;17145;49.902;8.680;'2023-04-28 13:03:48';99660;;;14;58
30343;BME280;17145;49.902;8.680;'2023-04-28 13:06:20';99670;;;14;57
30343;BME280;17145;49.902;8.680;'2023-04-28 13:08:48';99670;;;14;57
30343;BME280;17145;49.902;8.680;'2023-04-28 13:11:18';99670;;;14;57
30343;BME280;17145;49.902;8.680;'2023-04-28 13:13:47';99670;;;14;57
30343;BME280;17145;49.902;8.680;'2023-04-28 13:16:16';99670;;;14;57
30343;BME280;17145;49.902;8.680;'2023-04-28 13:18:50';99670;;;14;58
30343;BME280;17145;49.902;8.680;'2023-04-28 13:21:18';99670;;;14;58
30343;BME280;17145;49.902;8.680;'2023-04-28 13:23:46';99660;;;14;58
30343;BME280;17145;49.902;8.680;'2023-04-28 13:26:15';99660;;;14;58
30343;BME280;17145;49.902;8.680;'2023-04-28 13:28:49';99660;;;15;58
30343;BME280;17145;49.902;8.680;'2023-04-28 13:31:18';99660;;;14;58
30343;BME280;17145;49.902;8.680;'2023-04-28 13:33:50';99660;;;15;58
30343;BME280;17145;49.902;8.680;'2023-04-28 13:36:25';99670;;;15;57
30343;BME280;17145;49.902;8.680;'2023-04-28 13:38:52';99670;;;15;58
30343;BME280;17145;49.902;8.680;'2023-04-28 13:41:20';99680;;;15;57
30343;BME280;17145;49.902;8.680;'2023-04-28 13:43:47';99680;;;15;57
30343;BME280;17145;49.902;8.680;'2023-04-28 13:46:17';99670;;;15;57
30343;BME280;17145;49.902;8.680;'2023-04-28 13:48:45';99660;;;14;57
30343;BME280;17145;49.902;8.680;'2023-04-28 13:51:31';99650;;;15;57
30343;BME280;17145;49.902;8.680;'2023-04-28 13:54:00';99660;;;15;58
30343;BME280;17145;49.902;8.680;'2023-04-28 13:56:27';99660;;;15;58
30343;BME280;17145;49.902;8.680;'2023-04-28 13:59:01';99670;;;15;58
30343;BME280;17145;49.902;8.680;'2023-04-28 14:01:30';99660;;;15;58
30343;BME280;17145;49.902;8.680;'2023-04-28 14:03:58';99660;;;15;58
30343;BME280;17145;49.902;8.680;'2023-04-28 14:06:25';99660;;;15;58
30343;BME280;17145;49.902;8.680;'2023-04-28 14:08:53';99660;;;15;58
30343;BME280;17145;49.902;8.680;'2023-04-28 14:11:21';99660;;;14;58
30343;BME280;17145;49.902;8.680;'2023-04-28 14:14:04';99660;;;15;58
30343;BME280;17145;49.902;8.680;'2023-04-28 14:16:39';99650;;;14;58
30343;BME280;17145;49.902;8.680;'2023-04-28 14:19:06';99640;;;15;58
30343;BME280;17145;49.902;8.680;'2023-04-28 14:24:11';99630;;;15;58
30343;BME280;17145;49.902;8.680;'2023-04-28 14:26:39';99620;;;15;58
30343;BME280;17145;49.902;8.680;'2023-04-28 14:29:06';99620;;;15;58
30343;BME280;17145;49.902;8.680;'2023-04-28 14:31:47';99630;;;15;57
30343;BME280;17145;49.902;8.680;'2023-04-28 14:34:14';99630;;;16;57
30343;BME280;17145;49.902;8.680;'2023-04-28 14:36:42';99640;;;16;57
30343;BME280;17145;49.902;8.680;'2023-04-28 14:39:13';99630;;;16;57
30343;BME280;17145;49.902;8.680;'2023-04-28 14:41:40';99640;;;16;57
30343;BME280;17145;49.902;8.680;'2023-04-28 14:44:08';99630;;;17;55
30343;BME280;17145;49.902;8.680;'2023-04-28 14:46:36';99630;;;17;54
30343;BME280;17145;49.902;8.680;'2023-04-28 14:49:03';99620;;;17;53
30343;BME280;17145;49.902;8.680;'2023-04-28 14:51:31';99610;;;18;52
30343;BME280;17145;49.902;8.680;'2023-04-28 14:53:58';99620;;;18;50
30343;BME280;17145;49.902;8.680;'2023-04-28 14:56:26';99620;;;18;50
30343;BME280;17145;49.902;8.680;'2023-04-28 14:58:53';99620;;;18;49
30343;BME280;17145;49.902;8.680;'2023-04-28 15:01:20';99630;;;19;49
30343;BME280;17145;49.902;8.680;'2023-04-28 15:03:48';99630;;;18;49
30343;BME280;17145;49.902;8.680;'2023-04-28 15:06:15';99630;;;18;50
30343;BME280;17145;49.902;8.680;'2023-04-28 15:08:43';99630;;;18;49
30343;BME280;17145;49.902;8.680;'2023-04-28 15:11:10';99630;;;18;49
30343;BME280;17145;49.902;8.680;'2023-04-28 15:13:38';99630;;;18;50
30343;BME280;17145;49.902;8.680;'2023-04-28 15:16:05';99630;;;18;51
30343;BME280;17145;49.902;8.680;'2023-04-28 15:18:33';99620;;;18;51
30343;BME280;17145;49.902;8.680;'2023-04-28 15:21:01';99620;;;17;52
30343;BME280;17145;49.902;8.680;'2023-04-28 15:23:28';99610;;;18;51
30343;BME280;17145;49.902;8.680;'2023-04-28 15:25:55';99610;;;18;51
30343;BME280;17145;49.902;8.680;'2023-04-28 15:28:23';99610;;;18;51
30343;BME280;17145;49.902;8.680;'2023-04-28 15:30:50';99600;;;17;51
30343;BME280;17145;49.902;8.680;'2023-04-28 15:33:18';99600;;;17;51
30343;BME280;17145;49.902;8.680;'2023-04-28 15:35:46';99600;;;17;52
30343;BME280;17145;49.902;8.680;'2023-04-28 15:38:13';99600;;;17;52
30343;BME280;17145;49.902;8.680;'2023-04-28 15:40:40';99610;;;18;52
30343;BME280;17145;49.902;8.680;'2023-04-28 15:43:08';99600;;;18;51
30343;BME280;17145;49.902;8.680;'2023-04-28 15:45:35';99600;;;18;51
30343;BME280;17145;49.902;8.680;'2023-04-28 15:48:03';99590;;;18;51
30343;BME280;17145;49.902;8.680;'2023-04-28 15:50:30';99580;;;18;51
30343;BME280;17145;49.902;8.680;'2023-04-28 15:52:57';99580;;;18;51
30343;BME280;17145;49.902;8.680;'2023-04-28 15:55:25';99590;;;18;51
30343;BME280;17145;49.902;8.680;'2023-04-28 15:57:52';99580;;;18;51
30343;BME280;17145;49.902;8.680;'2023-04-28 16:00:20';99580;;;18;51
30343;BME280;17145;49.902;8.680;'2023-04-28 16:02:48';99570;;;18;51
30343;BME280;17145;49.902;8.680;'2023-04-28 16:05:15';99570;;;17;51
30343;BME280;17145;49.902;8.680;'2023-04-28 16:07:43';99570;;;18;51
30343;BME280;17145;49.902;8.680;'2023-04-28 16:10:10';99560;;;18;51
30343;BME280;17145;49.902;8.680;'2023-04-28 16:12:38';99550;;;18;50
30343;BME280;17145;49.902;8.680;'2023-04-28 16:15:06';99540;;;19;50
30343;BME280;17145;49.902;8.680;'2023-04-28 16:17:36';99540;;;19;49
30343;BME280;17145;49.902;8.680;'2023-04-28 16:20:10';99540;;;20;48
30343;BME280;17145;49.902;8.680;'2023-04-28 16:22:42';99530;;;20;47
30343;BME280;17145;49.902;8.680;'2023-04-28 16:25:11';99540;;;20;47
30343;BME280;17145;49.902;8.680;'2023-04-28 16:27:43';99540;;;20;46
30343;BME280;17145;49.902;8.680;'2023-04-28 16:30:13';99540;;;21;46
30343;BME280;17145;49.902;8.680;'2023-04-28 16:32:44';99530;;;21;45
30343;BME280;17145;49.902;8.680;'2023-04-28 16:35:13';99520;;;21;43
30343;BME280;17145;49.902;8.680;'2023-04-28 16:37:45';99520;;;21;43
30343;BME280;17145;49.902;8.680;'2023-04-28 16:40:14';99520;;;21;44
30343;BME280;17145;49.902;8.680;'2023-04-28 16:42:44';99520;;;21;44
30343;BME280;17145;49.902;8.680;'2023-04-28 16:45:12';99530;;;21;43